Time;durP1;ratioP1;P1;durP2;ratioP2;P2;SDS_P1;SDS_P2;PMS_P1;PMS_P2;Temp;Humidity;BMP_temperature;BMP_pressure;BME280_temperature;BME280_humidity;BME280_pressure;Samples;Min_cycle;Max_cycle;Signal;HPM_P1;HPM_P2
2021/12/07 00:02:06;;;;;;;18.02;13.08;;;;;;;12.18;49.86;98375.55;1789684;79;21039;-59
2021/12/07 00:04:33;;;;;;;16.65;12.98;;;;;;;12.10;49.94;98383.75;1784303;79;21161;-59
2021/12/07 00:07:00;;;;;;;16.90;13.70;;;;;;;12.07;49.94;98386.03;1798377;79;20876;-60
2021/12/07 00:09:29;;;;;;;17.48;14.03;;;;;;;12.10;49.73;98385.59;1800212;79;20970;-59
2021/12/07 00:11:56;;;;;;;17.25;13.98;;;;;;;12.04;49.95;98389.94;1789119;79;20895;-59
2021/12/07 00:14:24;;;;;;;16.62;13.18;;;;;;;11.95;49.94;98395.14;1781952;79;21070;-59
2021/12/07 00:16:53;;;;;;;21.02;14.05;;;;;;;11.93;50.07;98407.03;1789025;79;21863;-59
2021/12/07 00:19:20;;;;;;;19.23;15.13;;;;;;;12.03;49.78;98409.60;1776406;79;20943;-59
2021/12/07 00:21:49;;;;;;;19.40;15.53;;;;;;;12.00;49.90;98406.52;1786193;79;20985;-60
2021/12/07 00:24:16;;;;;;;19.40;15.68;;;;;;;12.08;49.55;98404.47;1786911;79;20959;-59
2021/12/07 00:26:43;;;;;;;20.65;15.32;;;;;;;12.10;49.47;98394.42;1794160;79;20880;-60
2021/12/07 00:29:10;;;;;;;19.80;15.55;;;;;;;12.03;49.53;98394.94;1797385;79;21213;-60
2021/12/07 00:31:43;;;;;;;23.55;15.78;;;;;;;11.90;49.84;98391.45;1789674;79;21035;-60
2021/12/07 00:36:38;;;;;;;20.60;14.00;;;;;;;11.82;50.07;98391.64;1788327;79;21591;-57
2021/12/07 00:39:06;;;;;;;19.27;13.98;;;;;;;11.83;49.90;98389.30;1801502;79;20907;-60
2021/12/07 00:41:34;;;;;;;17.45;14.18;;;;;;;11.73;49.92;98397.17;1797057;79;21212;-58
2021/12/07 00:44:02;;;;;;;17.95;13.38;;;;;;;11.74;49.83;98396.16;1788328;79;20889;-59
2021/12/07 00:46:29;;;;;;;16.67;13.40;;;;;;;11.71;49.90;98401.89;1778660;79;21111;-59
2021/12/07 00:48:56;;;;;;;18.73;14.15;;;;;;;11.83;49.74;98402.13;1785115;79;21106;-59
2021/12/07 00:51:23;;;;;;;18.42;14.13;;;;;;;11.82;49.45;98403.64;1777680;79;21073;-59
2021/12/07 00:53:49;;;;;;;20.60;14.90;;;;;;;11.80;49.30;98407.03;1789625;79;21147;-59
2021/12/07 00:56:16;;;;;;;19.45;14.23;;;;;;;11.69;49.30;98391.95;1782182;79;20963;-59
2021/12/07 00:58:43;;;;;;;19.37;15.08;;;;;;;11.63;49.57;98383.91;1782141;79;21447;-59
2021/12/07 01:01:12;;;;;;;18.67;14.50;;;;;;;11.54;49.66;98379.81;1786362;79;20991;-59
2021/12/07 01:03:41;;;;;;;17.52;13.83;;;;;;;11.38;50.00;98397.50;1782914;79;20879;-59
2021/12/07 01:06:25;;;;;;;16.32;13.53;;;;;;;11.44;49.89;98414.01;1784974;79;21132;-59
2021/12/07 01:25:00;;;;;;;16.40;13.32;;;;;;;11.47;49.14;98441.58;1783062;79;20883;-58
2021/12/07 01:27:28;;;;;;;17.23;13.95;;;;;;;11.57;49.03;98441.50;1793058;79;20992;-58
2021/12/07 01:30:13;;;;;;;16.15;12.73;;;;;;;11.58;48.90;98439.13;1791241;79;21049;-59
2021/12/07 01:33:02;;;;;;;18.40;14.00;;;;;;;11.44;49.40;98437.47;1788510;79;21175;-58
2021/12/07 01:38:20;;;;;;;17.17;13.25;;;;;;;11.66;48.77;98435.45;1784421;79;21472;-59
2021/12/07 01:40:46;;;;;;;18.23;14.10;;;;;;;11.60;49.06;98429.63;1784511;79;21528;-59
2021/12/07 01:46:01;;;;;;;14.95;11.57;;;;;;;11.64;49.42;98426.84;1784366;79;20952;-59
2021/12/07 02:01:54;;;;;;;14.33;12.10;;;;;;;11.62;48.97;98446.22;1794610;79;21002;-59
2021/12/07 02:04:22;;;;;;;13.25;11.40;;;;;;;11.66;48.77;98452.77;1777760;79;21033;-59
2021/12/07 02:06:48;;;;;;;12.58;11.15;;;;;;;11.73;48.48;98451.00;1787568;79;21082;-60
2021/12/07 02:09:15;;;;;;;13.18;11.83;;;;;;;11.80;48.31;98449.16;1787024;79;20964;-60
2021/12/07 02:11:47;;;;;;;12.43;10.88;;;;;;;12.60;46.70;98438.27;1797179;79;21089;-59
2021/12/07 02:14:17;;;;;;;13.18;11.55;;;;;;;12.66;46.19;98426.77;1795492;79;21402;-59
2021/12/07 02:16:51;;;;;;;11.88;10.68;;;;;;;12.75;46.01;98415.34;1783481;79;20935;-60
2021/12/07 02:19:18;;;;;;;12.18;10.80;;;;;;;12.68;45.89;98410.55;1787527;79;21023;-60
2021/12/07 02:21:45;;;;;;;13.00;10.55;;;;;;;12.78;45.59;98422.93;1787577;79;20900;-59
2021/12/07 02:24:13;;;;;;;10.55;9.30;;;;;;;12.03;47.12;98418.11;1785528;79;21160;-60
2021/12/07 02:26:40;;;;;;;10.98;9.80;;;;;;;11.90;47.40;98406.94;1793902;79;20923;-60
2021/12/07 02:29:06;;;;;;;11.28;10.13;;;;;;;11.91;47.40;98403.26;1777235;79;21093;-59
2021/12/07 02:31:33;;;;;;;11.35;9.18;;;;;;;11.87;47.52;98408.67;1782400;79;21460;-59
2021/12/07 02:34:00;;;;;;;11.12;9.23;;;;;;;11.74;47.69;98409.48;1797290;79;20927;-59
2021/12/07 02:36:27;;;;;;;10.65;9.53;;;;;;;11.83;47.46;98413.28;1789209;79;21156;-58
2021/12/07 02:38:54;;;;;;;12.95;9.80;;;;;;;11.75;47.93;98410.31;1733239;82;20899;-60
2021/12/07 02:41:21;;;;;;;12.20;10.68;;;;;;;11.85;47.35;98408.56;1733453;81;20974;-58
2021/12/07 02:43:47;;;;;;;14.40;10.72;;;;;;;11.81;47.40;98396.69;1760841;80;21168;-58
2021/12/07 02:46:14;;;;;;;12.90;9.58;;;;;;;11.72;47.41;98396.05;1758913;80;20891;-59
2021/12/07 02:48:40;;;;;;;11.50;9.70;;;;;;;11.73;47.30;98397.70;1755090;80;21145;-59
2021/12/07 02:51:07;;;;;;;10.00;9.00;;;;;;;11.75;47.10;98404.47;1730894;80;21003;-59
2021/12/07 02:53:35;;;;;;;10.85;9.28;;;;;;;11.58;47.47;98409.83;1781496;80;20931;-59
2021/12/07 02:56:01;;;;;;;9.93;8.88;;;;;;;11.67;47.43;98409.96;1779517;80;20895;-59
2021/12/07 02:58:30;;;;;;;10.63;9.50;;;;;;;11.75;47.37;98415.64;1768988;80;20924;-59
2021/12/07 03:01:03;;;;;;;10.10;8.95;;;;;;;11.80;47.22;98416.35;1774596;80;21153;-59
2021/12/07 03:03:29;;;;;;;11.78;9.85;;;;;;;11.74;47.46;98417.98;1746287;80;20986;-59
2021/12/07 03:06:11;;;;;;;12.55;9.88;;;;;;;11.68;47.31;98427.59;1776851;80;20934;-58
2021/12/07 03:27:35;;;;;;;10.80;9.57;;;;;;;11.58;48.09;98431.14;1760383;80;21534;-59
2021/12/07 03:30:05;;;;;;;10.65;9.48;;;;;;;11.37;47.69;98427.80;1741234;81;20968;-59
2021/12/07 03:32:32;;;;;;;10.18;9.15;;;;;;;11.45;47.20;98432.94;1773040;80;20951;-59
2021/12/07 03:34:59;;;;;;;10.95;9.78;;;;;;;11.54;46.84;98433.08;1767097;80;20990;-59
2021/12/07 03:37:25;;;;;;;9.80;8.73;;;;;;;11.46;47.35;98443.91;1771530;80;21922;-59
2021/12/07 03:39:52;;;;;;;10.75;9.68;;;;;;;11.58;46.83;98448.95;1759012;80;21135;-59
2021/12/07 03:42:19;;;;;;;10.50;9.40;;;;;;;11.53;46.83;98450.08;1774329;80;20990;-59
2021/12/07 03:44:46;;;;;;;11.20;9.85;;;;;;;11.50;46.77;98453.13;1776875;80;32472;-59
2021/12/07 03:47:12;;;;;;;10.25;9.25;;;;;;;11.49;46.65;98452.34;1770779;80;20923;-59
2021/12/07 03:49:39;;;;;;;11.73;9.65;;;;;;;11.28;47.08;98460.45;1773516;79;21049;-59
2021/12/07 03:52:07;;;;;;;11.12;9.65;;;;;;;11.29;47.12;98455.42;1788671;79;21139;-59
2021/12/07 03:54:34;;;;;;;12.10;10.55;;;;;;;11.43;46.54;98455.80;1787251;79;21443;-59
2021/12/07 03:57:01;;;;;;;11.08;9.95;;;;;;;11.53;46.00;98445.57;1788869;79;21025;-59
2021/12/07 03:59:28;;;;;;;11.65;10.45;;;;;;;11.44;45.98;98447.30;1789752;79;20948;-59
2021/12/07 04:01:55;;;;;;;10.90;9.75;;;;;;;11.36;45.95;98447.48;1791356;79;20990;-59
2021/12/07 04:04:21;;;;;;;11.55;10.35;;;;;;;11.45;45.68;98447.59;1784082;79;21136;-59
2021/12/07 04:06:48;;;;;;;13.32;10.38;;;;;;;11.45;45.39;98450.25;1794371;79;20998;-59
2021/12/07 04:09:14;;;;;;;13.38;10.88;;;;;;;11.26;45.67;98453.69;1777924;79;20936;-59
2021/12/07 04:11:41;;;;;;;12.68;10.53;;;;;;;11.18;45.60;98462.14;1792565;79;21446;-59
2021/12/07 04:14:08;;;;;;;13.60;11.57;;;;;;;11.10;45.40;98459.67;1795949;79;20966;-59
2021/12/07 04:16:35;;;;;;;13.70;11.43;;;;;;;11.09;45.13;98457.19;1794500;79;21087;-59
2021/12/07 04:19:01;;;;;;;13.65;11.85;;;;;;;10.80;45.49;98456.94;1791757;79;21426;-59
2021/12/07 04:21:28;;;;;;;12.93;11.48;;;;;;;10.94;45.06;98456.51;1793474;79;21004;-60
2021/12/07 04:23:54;;;;;;;13.68;11.38;;;;;;;10.97;44.80;98452.95;1791130;79;21398;-60
2021/12/07 04:26:21;;;;;;;14.23;12.07;;;;;;;10.84;44.84;98456.88;1791123;79;20978;-60
2021/12/07 04:28:48;;;;;;;16.32;13.00;;;;;;;10.82;44.72;98456.77;1781057;79;21142;-59
2021/12/07 04:31:14;;;;;;;14.63;12.58;;;;;;;7.03;53.14;98469.22;1794389;79;20924;-59
2021/12/07 04:33:40;;;;;;;15.45;12.03;;;;;;;6.13;56.49;98479.19;1791075;79;20936;-59
2021/12/07 04:36:08;;;;;;;15.53;13.18;;;;;;;5.91;57.63;98486.47;1783416;79;21089;-59
2021/12/07 04:38:34;;;;;;;16.32;13.03;;;;;;;5.88;58.13;98490.75;1777122;79;20884;-59
2021/12/07 04:41:01;;;;;;;15.15;12.45;;;;;;;5.89;58.17;98492.37;1791433;79;21125;-59
2021/12/07 04:43:29;;;;;;;16.23;13.68;;;;;;;5.73;58.72;98497.64;1785070;79;20950;-59
2021/12/07 04:46:21;;;;;;;16.10;13.13;;;;;;;5.65;59.13;98496.80;1783154;79;20912;-59
2021/12/07 04:49:19;;;;;;;15.93;13.43;;;;;;;5.61;59.47;98493.64;1762226;80;20900;-59
2021/12/07 04:59:30;;;;;;;16.00;12.53;;;;;;;5.57;59.96;98515.59;1804143;79;20936;-59
2021/12/07 05:01:56;;;;;;;17.57;13.43;;;;;;;5.58;60.14;98522.98;1804394;79;21077;-59
2021/12/07 05:04:27;;;;;;;17.75;14.03;;;;;;;5.58;60.18;98524.30;1796364;79;20923;-59
2021/12/07 05:06:57;;;;;;;18.55;15.50;;;;;;;5.59;60.05;98524.65;1793118;79;21175;-59
2021/12/07 05:09:37;;;;;;;18.20;14.45;;;;;;;5.61;60.12;98531.41;1801300;78;20934;-59
2021/12/07 05:12:16;;;;;;;17.85;14.15;;;;;;;5.62;60.17;98528.29;1790232;78;21509;-59
2021/12/07 05:14:27;;;;;;;17.32;12.98;;;;;;;5.58;60.26;98526.45;1797389;79;21544;-59
2021/12/07 05:17:15;;;;;;;16.52;13.30;;;;;;;5.63;60.32;98533.08;1801671;79;21049;-59
2021/12/07 05:25:24;;;;;;;14.93;12.13;;;;;;;5.51;60.49;98524.63;1800572;79;21401;-59
2021/12/07 05:38:26;;;;;;;17.40;13.70;;;;;;;5.31;61.07;98532.00;1791782;78;21035;-60
2021/12/07 05:40:52;;;;;;;17.27;13.18;;;;;;;5.31;61.09;98536.45;1807262;79;20978;-60
2021/12/07 05:43:19;;;;;;;18.05;13.93;;;;;;;5.29;61.19;98533.95;1808644;78;21018;-60
2021/12/07 05:45:45;;;;;;;15.63;12.68;;;;;;;5.30;61.20;98528.19;1803383;79;21104;-60
2021/12/07 05:48:11;;;;;;;15.08;11.97;;;;;;;5.32;61.07;98540.75;1807479;78;20902;-58
2021/12/07 05:50:39;;;;;;;17.65;13.00;;;;;;;5.33;61.02;98537.11;1785717;79;21576;-60
2021/12/07 05:53:06;;;;;;;18.40;14.35;;;;;;;5.33;61.02;98533.15;1763111;80;21498;-59
2021/12/07 05:55:33;;;;;;;16.55;12.25;;;;;;;5.31;61.14;98525.90;1759677;80;20882;-59
2021/12/07 05:58:00;;;;;;;17.02;12.82;;;;;;;5.30;61.13;98534.30;1767017;81;21132;-59
2021/12/07 06:00:29;;;;;;;15.63;12.15;;;;;;;5.31;61.19;98535.13;1764864;80;21634;-58
2021/12/07 06:02:58;;;;;;;17.17;13.35;;;;;;;5.31;61.18;98554.42;1766086;81;20926;-60
2021/12/07 06:05:25;;;;;;;17.15;13.72;;;;;;;5.33;61.20;98562.16;1756831;80;21011;-60
2021/12/07 06:07:52;;;;;;;16.85;12.45;;;;;;;5.31;61.16;98566.77;1759962;80;21066;-64
2021/12/07 06:10:18;;;;;;;19.35;13.83;;;;;;;5.30;61.20;98565.94;1765050;80;21143;-62
2021/12/07 06:12:45;;;;;;;19.10;14.00;;;;;;;5.29;61.34;98580.10;1757807;80;20994;-60
2021/12/07 06:15:14;;;;;;;17.32;13.30;;;;;;;5.37;61.25;98584.61;1758640;81;20927;-59
2021/12/07 06:17:40;;;;;;;19.17;13.65;;;;;;;5.36;61.38;98590.37;1698949;83;20964;-60
2021/12/07 06:20:08;;;;;;;18.25;13.28;;;;;;;5.46;61.33;98584.95;1748348;79;21084;-61
2021/12/07 06:22:34;;;;;;;17.27;12.90;;;;;;;5.51;61.11;98590.58;1763129;81;21081;-60
2021/12/07 06:25:01;;;;;;;16.40;12.80;;;;;;;5.50;61.06;98587.62;1763980;81;21394;-61
2021/12/07 06:27:27;;;;;;;17.87;12.95;;;;;;;5.54;60.97;98586.31;1763454;80;21041;-61
2021/12/07 06:29:53;;;;;;;17.30;13.25;;;;;;;5.59;60.92;98590.61;1760869;81;21015;-61
2021/12/07 06:32:20;;;;;;;17.92;13.28;;;;;;;5.56;60.81;98591.76;1758449;80;21076;-61
2021/12/07 06:34:46;;;;;;;17.42;13.55;;;;;;;5.58;60.77;98585.82;1755176;81;21130;-61
2021/12/07 06:37:12;;;;;;;17.90;12.60;;;;;;;5.60;60.46;98580.41;1760600;80;20939;-62
2021/12/07 06:39:38;;;;;;;16.65;13.00;;;;;;;5.56;60.27;98586.48;1769339;81;20932;-62
2021/12/07 06:42:05;;;;;;;18.48;13.28;;;;;;;5.53;60.41;98591.23;1763285;81;20947;-61
2021/12/07 06:44:31;;;;;;;22.20;14.90;;;;;;;5.53;60.38;98591.23;1767030;81;20964;-60
2021/12/07 06:46:58;;;;;;;16.55;12.75;;;;;;;5.60;60.34;98585.68;1758295;81;21797;-60
2021/12/07 06:49:25;;;;;;;20.65;14.38;;;;;;;5.56;60.50;98583.01;1769874;80;20958;-61
2021/12/07 06:51:51;;;;;;;19.57;14.25;;;;;;;5.54;60.72;98580.55;1783852;79;20927;-60
2021/12/07 06:54:18;;;;;;;17.67;13.53;;;;;;;5.54;61.73;98581.86;1791807;79;21104;-60
2021/12/07 06:56:44;;;;;;;17.12;13.38;;;;;;;5.55;62.30;98585.34;1776660;79;20980;-60
2021/12/07 06:59:11;;;;;;;21.30;13.60;;;;;;;5.56;61.88;98585.16;1776590;79;21104;-60
2021/12/07 07:01:37;;;;;;;21.57;14.13;;;;;;;5.60;61.83;98596.23;1793212;79;21493;-59
2021/12/07 07:04:04;;;;;;;18.67;13.15;;;;;;;5.65;61.69;98599.70;1777123;79;20917;-60
2021/12/07 07:06:30;;;;;;;18.23;12.82;;;;;;;5.63;61.73;98592.77;1708283;81;20945;-60
2021/12/07 07:08:56;;;;;;;20.80;14.47;;;;;;;5.66;61.66;98604.80;1792690;79;21074;-64
2021/12/07 07:11:23;;;;;;;20.32;14.87;;;;;;;5.62;61.42;98600.84;1776880;79;21130;-60
2021/12/07 07:13:50;;;;;;;20.95;14.95;;;;;;;5.59;61.12;98601.16;1786156;79;21022;-61
2021/12/07 07:16:16;;;;;;;21.20;15.80;;;;;;;5.56;60.89;98606.27;1794567;79;20947;-61
2021/12/07 07:18:42;;;;;;;17.15;13.58;;;;;;;5.60;60.83;98604.15;1784929;79;21426;-61
2021/12/07 07:21:09;;;;;;;20.30;14.55;;;;;;;5.60;60.84;98605.47;1794743;79;20976;-61
2021/12/07 07:23:38;;;;;;;19.55;14.20;;;;;;;5.61;60.73;98606.61;1791208;79;21682;-61
2021/12/07 07:26:04;;;;;;;19.57;15.13;;;;;;;5.63;60.66;98616.19;1784694;79;20872;-62
2021/12/07 07:28:33;;;;;;;20.12;14.30;;;;;;;5.69;60.55;98614.22;1719595;81;21529;-62
2021/12/07 07:31:00;;;;;;;21.65;15.85;;;;;;;5.68;60.43;98614.73;1716958;81;21007;-61
2021/12/07 07:33:27;;;;;;;18.92;14.68;;;;;;;5.70;60.32;98616.71;1781435;79;21012;-61
2021/12/07 07:35:54;;;;;;;20.97;15.65;;;;;;;5.66;60.27;98616.68;1788992;79;21637;-65
2021/12/07 07:38:20;;;;;;;27.30;16.97;;;;;;;5.61;60.43;98618.98;1790377;79;20966;-62
2021/12/07 07:40:47;;;;;;;24.12;16.07;;;;;;;5.66;60.44;98618.00;1776823;79;20913;-62
2021/12/07 07:43:16;;;;;;;21.12;14.53;;;;;;;5.77;60.18;98619.52;1789037;79;20979;-62
2021/12/07 07:45:47;;;;;;;21.02;15.60;;;;;;;5.75;60.14;98623.66;1772691;79;21015;-62
2021/12/07 07:48:14;;;;;;;20.95;15.25;;;;;;;5.74;59.94;98620.67;1791832;79;21126;-62
2021/12/07 07:50:40;;;;;;;21.07;15.35;;;;;;;5.70;60.09;98620.67;1783857;79;22195;-61
2021/12/07 07:53:07;;;;;;;23.30;16.15;;;;;;;5.72;60.10;98626.61;1816361;78;21020;-61
2021/12/07 07:55:35;;;;;;;19.55;15.03;;;;;;;5.76;60.11;98630.56;1805515;78;21082;-62
2021/12/07 07:58:03;;;;;;;26.90;18.00;;;;;;;5.82;60.07;98627.30;1808656;78;21055;-61
2021/12/07 08:00:31;;;;;;;22.62;15.93;;;;;;;5.84;59.89;98630.59;1804738;78;21274;-61
2021/12/07 08:02:57;;;;;;;18.77;14.35;;;;;;;5.89;59.69;98633.61;1810189;78;21585;-61
2021/12/07 08:05:24;;;;;;;20.27;14.87;;;;;;;5.92;59.49;98626.69;1801098;78;20935;-61
2021/12/07 08:07:51;;;;;;;18.15;13.83;;;;;;;5.92;59.24;98629.81;1813781;78;20963;-61
2021/12/07 08:10:21;;;;;;;18.17;14.25;;;;;;;5.83;59.39;98629.45;1810928;78;20906;-60
2021/12/07 08:12:49;;;;;;;18.80;14.13;;;;;;;5.70;59.28;98627.75;1816123;78;21139;-62
2021/12/07 08:15:18;;;;;;;16.62;12.45;;;;;;;5.58;59.42;98627.20;1804063;78;20946;-62
2021/12/07 08:17:44;;;;;;;17.25;13.03;;;;;;;5.53;59.51;98629.01;1810210;78;20926;-61
2021/12/07 08:20:11;;;;;;;20.95;15.38;;;;;;;5.50;59.61;98637.75;1816178;78;20911;-61
2021/12/07 08:22:37;;;;;;;15.60;13.58;;;;;;;5.55;59.56;98639.42;1819588;78;20977;-61
2021/12/07 08:25:05;;;;;;;17.07;13.72;;;;;;;5.63;59.35;98640.77;1820803;78;21440;-62
2021/12/07 08:27:32;;;;;;;19.73;14.28;;;;;;;5.66;59.22;98644.39;1803851;78;20989;-61
2021/12/07 08:29:59;;;;;;;19.70;14.07;;;;;;;5.65;58.96;98648.03;1810974;78;21002;-61
2021/12/07 08:32:25;;;;;;;21.02;14.03;;;;;;;5.60;59.13;98645.05;1807189;78;21120;-61
2021/12/07 08:34:51;;;;;;;19.37;13.95;;;;;;;5.57;59.29;98642.72;1810472;78;20981;-62
2021/12/07 08:37:18;;;;;;;18.37;14.10;;;;;;;5.60;59.26;98642.41;1815764;78;21966;-62
2021/12/07 08:39:44;;;;;;;19.75;14.65;;;;;;;5.63;59.14;98643.91;1809901;78;21022;-62
2021/12/07 08:42:10;;;;;;;20.32;13.93;;;;;;;5.60;59.08;98643.73;1817890;78;21488;-62
2021/12/07 08:44:38;;;;;;;19.75;15.03;;;;;;;5.56;58.94;98641.89;1812351;78;21026;-61
2021/12/07 08:47:05;;;;;;;20.27;13.22;;;;;;;5.54;58.98;98639.08;1808737;78;20981;-62
2021/12/07 08:49:31;;;;;;;18.85;14.00;;;;;;;5.53;58.95;98632.97;1811666;78;21150;-61
2021/12/07 08:51:58;;;;;;;17.48;14.23;;;;;;;5.50;58.83;98634.59;1804124;78;21014;-62
2021/12/07 08:59:42;;;;;;;20.88;14.60;;;;;;;5.51;58.91;98638.07;1788471;79;20967;-60
2021/12/07 09:02:07;;;;;;;21.55;14.73;;;;;;;5.43;58.94;98634.08;1785750;79;21159;-62
2021/12/07 09:04:34;;;;;;;22.67;14.43;;;;;;;5.41;58.96;98627.65;1793178;79;20943;-62
2021/12/07 09:07:01;;;;;;;19.90;13.43;;;;;;;5.41;58.86;98624.18;1788447;79;21516;-62
2021/12/07 09:09:28;;;;;;;19.45;13.70;;;;;;;5.30;58.94;98627.92;1785633;79;20924;-62
2021/12/07 09:11:55;;;;;;;20.55;14.10;;;;;;;5.29;59.07;98633.36;1781813;79;20875;-61
2021/12/07 09:14:22;;;;;;;19.55;13.75;;;;;;;5.34;59.13;98620.53;1755022;80;21330;-61
2021/12/07 09:16:50;;;;;;;20.50;13.75;;;;;;;5.37;59.04;98613.63;1784614;79;21528;-61
2021/12/07 09:19:16;;;;;;;19.30;14.23;;;;;;;5.36;59.01;98623.34;1791602;79;20896;-61
2021/12/07 09:21:43;;;;;;;22.00;14.43;;;;;;;5.26;58.95;98627.08;1788948;79;20911;-61
2021/12/07 09:24:10;;;;;;;20.55;14.13;;;;;;;5.19;59.07;98620.27;1790599;79;20895;-61
2021/12/07 09:26:37;;;;;;;17.10;13.30;;;;;;;5.14;59.38;98633.10;1784915;79;22047;-62
2021/12/07 09:29:04;;;;;;;21.10;13.78;;;;;;;5.10;59.57;98626.98;1763073;80;21399;-61
2021/12/07 09:31:30;;;;;;;19.55;14.83;;;;;;;5.10;59.60;98630.94;1772958;79;21474;-62
2021/12/07 09:33:57;;;;;;;20.72;15.50;;;;;;;5.14;59.64;98620.41;1790833;79;21038;-62
2021/12/07 09:36:25;;;;;;;21.15;14.18;;;;;;;5.16;59.54;98624.56;1789462;79;20945;-62
2021/12/07 09:38:51;;;;;;;19.52;13.95;;;;;;;5.21;59.44;98620.97;1796022;79;21209;-61
2021/12/07 09:41:18;;;;;;;21.37;14.87;;;;;;;5.20;59.42;98623.26;1781020;79;20915;-61
2021/12/07 09:43:46;;;;;;;20.48;14.18;;;;;;;5.23;59.45;98621.63;1784199;79;20872;-63
2021/12/07 09:46:13;;;;;;;22.90;15.08;;;;;;;5.24;59.40;98628.54;1791116;79;22365;-61
2021/12/07 09:48:40;;;;;;;23.42;15.32;;;;;;;5.27;59.45;98626.08;1784906;79;20987;-62
2021/12/07 09:51:08;;;;;;;22.67;15.23;;;;;;;5.16;59.65;98636.44;1754389;80;21834;-61
2021/12/07 09:53:35;;;;;;;21.12;15.13;;;;;;;5.18;59.76;98640.22;1791624;79;21450;-61
2021/12/07 09:56:03;;;;;;;20.57;13.98;;;;;;;5.19;59.88;98643.20;1792693;79;20884;-62
2021/12/07 09:58:30;;;;;;;21.77;14.98;;;;;;;5.24;59.70;98640.92;1796424;79;20884;-62
2021/12/07 10:00:56;;;;;;;21.33;15.13;;;;;;;5.23;59.55;98644.05;1783480;79;21571;-62
2021/12/07 10:03:23;;;;;;;23.32;16.40;;;;;;;5.24;59.56;98648.83;1787693;79;21126;-63
2021/12/07 10:05:50;;;;;;;22.22;15.43;;;;;;;5.28;59.54;98647.52;1784103;79;21013;-62
2021/12/07 10:08:16;;;;;;;23.57;15.72;;;;;;;5.35;59.42;98645.90;1794518;79;21603;-61
2021/12/07 10:10:48;;;;;;;21.87;15.95;;;;;;;5.33;59.30;98650.52;1792998;79;20994;-62
2021/12/07 10:13:15;;;;;;;21.17;15.32;;;;;;;5.33;59.16;98646.55;1793883;79;21427;-61
2021/12/07 10:15:43;;;;;;;18.98;13.95;;;;;;;5.26;59.38;98652.97;1796832;79;21445;-61
2021/12/07 10:18:17;;;;;;;22.10;15.13;;;;;;;5.30;59.36;98656.93;1796744;79;20946;-62
2021/12/07 10:20:50;;;;;;;25.00;15.72;;;;;;;5.35;59.24;98655.97;1780426;79;20911;-61
2021/12/07 10:23:22;;;;;;;21.25;15.60;;;;;;;5.43;59.08;98659.13;1796957;79;21005;-61
2021/12/07 10:25:54;;;;;;;21.23;15.10;;;;;;;5.45;58.94;98659.80;1797754;79;20892;-61
2021/12/07 10:28:47;;;;;;;20.75;15.40;;;;;;;5.45;59.05;98662.43;1793315;79;21611;-61
2021/12/07 10:31:37;;;;;;;23.07;14.98;;;;;;;5.41;59.27;98659.78;1780800;79;20836;-61
2021/12/07 10:34:11;;;;;;;19.42;14.13;;;;;;;5.39;59.51;98656.48;1786683;79;20896;-62
2021/12/07 10:36:47;;;;;;;22.37;15.45;;;;;;;5.37;59.21;98661.10;1797538;79;20993;-64
2021/12/07 10:39:20;;;;;;;20.65;15.40;;;;;;;5.36;59.14;98652.84;1799837;79;20989;-70
2021/12/07 10:41:53;;;;;;;22.55;15.63;;;;;;;5.32;58.91;98657.59;1795869;79;21148;-66
2021/12/07 10:44:23;;;;;;;22.55;15.83;;;;;;;5.25;58.95;98659.21;1789995;79;20983;-63
2021/12/07 10:47:03;;;;;;;26.52;16.50;;;;;;;5.21;59.29;98654.41;1792623;79;20920;-64
2021/12/07 10:49:42;;;;;;;25.40;16.80;;;;;;;5.29;59.29;98657.09;1757204;81;21482;-62
2021/12/07 10:52:32;;;;;;;26.02;15.95;;;;;;;5.21;59.17;98657.88;1766567;80;20927;-62
2021/12/07 10:55:22;;;;;;;22.13;15.18;;;;;;;5.17;59.25;98653.89;1771808;80;22334;-62
2021/12/07 10:57:57;;;;;;;21.68;14.23;;;;;;;5.14;59.32;98651.56;1805505;78;20980;-63
2021/12/07 11:00:36;;;;;;;20.05;14.65;;;;;;;5.07;59.26;98645.27;1798313;79;21017;-62
2021/12/07 11:03:10;;;;;;;23.75;16.07;;;;;;;5.04;59.09;98648.20;1801991;79;20891;-61
2021/12/07 11:05:50;;;;;;;22.70;16.10;;;;;;;5.02;59.03;98646.22;1794559;79;20867;-62
2021/12/07 11:08:18;;;;;;;22.98;16.50;;;;;;;4.94;59.14;98640.89;1808613;79;22377;-60
2021/12/07 11:10:48;;;;;;;23.85;16.20;;;;;;;4.98;59.21;98644.86;1808802;78;20836;-61
2021/12/07 11:13:26;;;;;;;25.60;17.23;;;;;;;5.00;59.23;98645.56;1810226;78;20914;-61
2021/12/07 11:15:57;;;;;;;23.57;16.90;;;;;;;5.00;59.16;98650.83;1805699;79;21552;-62
2021/12/07 11:18:40;;;;;;;24.10;16.87;;;;;;;4.94;59.25;98652.27;1806034;79;20970;-62
2021/12/07 11:21:13;;;;;;;25.37;16.15;;;;;;;4.87;59.36;98652.56;1806266;79;21811;-61
2021/12/07 11:23:46;;;;;;;25.88;16.93;;;;;;;4.83;59.44;98656.47;1790521;79;21018;-62
2021/12/07 11:31:35;;;;;;;21.75;15.43;;;;;;;4.68;60.35;98643.52;1788313;79;20987;-61
2021/12/07 11:34:15;;;;;;;22.35;15.40;;;;;;;4.60;60.85;98641.30;1802107;79;21261;-65
2021/12/07 11:37:02;;;;;;;22.32;15.15;;;;;;;4.55;61.61;98638.30;1748636;82;21453;-60
2021/12/07 11:39:54;;;;;;;25.15;16.75;;;;;;;4.47;61.88;98641.70;1777670;80;20903;-63
2021/12/07 11:42:29;;;;;;;24.92;17.67;;;;;;;4.58;61.92;98638.00;1809629;78;20974;-62
2021/12/07 11:45:08;;;;;;;24.05;16.27;;;;;;;4.62;62.00;98634.90;1805055;79;21512;-63
2021/12/07 11:52:01;;;;;;;21.93;14.75;;;;;;;1.90;72.88;98655.63;1773828;79;28368;-65
2021/12/07 11:54:32;;;;;;;21.68;15.30;;;;;;;3.51;67.42;98651.57;1754635;80;21421;-62
2021/12/07 11:57:00;;;;;;;18.32;13.88;;;;;;;3.73;65.46;98641.12;1737391;81;21137;-65
2021/12/07 11:59:27;;;;;;;23.20;16.50;;;;;;;3.72;64.83;98649.52;1747390;80;20942;-63
2021/12/07 12:01:53;;;;;;;22.42;16.52;;;;;;;3.74;64.52;98652.83;1751095;80;20935;-63
2021/12/07 12:04:20;;;;;;;24.72;17.62;;;;;;;3.86;64.02;98659.21;1750244;81;21006;-64
2021/12/07 12:06:51;;;;;;;23.73;16.65;;;;;;;3.78;63.97;98659.91;1746264;81;20887;-64
2021/12/07 12:09:20;;;;;;;21.33;14.58;;;;;;;3.80;63.80;98659.79;1755308;80;21041;-63
2021/12/07 12:12:32;;;;;;;19.02;14.38;;;;;;;3.79;63.68;98660.75;1736041;81;21394;-63
2021/12/07 12:15:47;;;;;;;22.17;14.87;;;;;;;3.81;63.30;98656.20;1761373;80;20855;-66
2021/12/07 12:18:24;;;;;;;22.70;15.63;;;;;;;3.72;63.31;98660.53;1747509;80;21458;-64
2021/12/07 12:21:17;;;;;;;23.00;15.90;;;;;;;3.72;63.26;98665.79;1737485;80;20974;-65
2021/12/07 12:23:53;;;;;;;22.30;15.65;;;;;;;3.55;63.28;98666.55;1741364;81;21229;-64
2021/12/07 12:26:22;;;;;;;24.10;15.67;;;;;;;3.47;63.57;98672.54;1750207;80;21001;-65
2021/12/07 12:28:51;;;;;;;24.40;16.55;;;;;;;3.41;63.79;98669.20;1745347;80;21139;-66
2021/12/07 12:31:19;;;;;;;23.15;15.90;;;;;;;3.40;63.91;98671.47;1743809;80;20907;-66
2021/12/07 12:33:53;;;;;;;24.98;15.95;;;;;;;3.45;63.77;98674.48;1740972;81;20915;-64
2021/12/07 12:36:23;;;;;;;26.37;16.83;;;;;;;3.47;63.99;98682.22;1750902;80;21086;-68
2021/12/07 12:39:05;;;;;;;23.65;15.70;;;;;;;3.52;63.91;98680.82;1741981;80;20934;-64
2021/12/07 12:41:31;;;;;;;26.77;16.30;;;;;;;3.56;63.66;98689.26;1743481;80;20959;-65
2021/12/07 12:44:08;;;;;;;25.12;15.98;;;;;;;3.57;65.15;98689.10;1754606;80;20926;-65
2021/12/07 12:46:37;;;;;;;25.23;15.98;;;;;;;3.66;65.55;98687.41;1744535;80;26835;-63
2021/12/07 12:49:06;;;;;;;31.48;17.75;;;;;;;3.75;64.84;98688.66;1757111;80;21140;-62
2021/12/07 12:51:47;;;;;;;28.95;16.97;;;;;;;3.71;64.19;98685.16;1733998;80;20928;-64
2021/12/07 12:54:13;;;;;;;27.70;16.32;;;;;;;3.68;64.01;98692.86;1729756;80;21430;-62
2021/12/07 12:56:39;;;;;;;25.27;17.07;;;;;;;3.68;63.70;98686.77;1738577;81;21030;-65
2021/12/07 12:59:09;;;;;;;23.95;16.23;;;;;;;3.65;63.65;98695.78;1728222;81;20856;-64
2021/12/07 13:01:38;;;;;;;26.65;17.82;;;;;;;3.71;63.20;98690.42;1741445;80;21143;-64
2021/12/07 13:04:28;;;;;;;28.25;17.50;;;;;;;3.61;63.37;98687.02;1734523;80;21426;-62
2021/12/07 13:07:04;;;;;;;25.05;16.40;;;;;;;3.53;63.57;98689.06;1736491;80;20928;-65
2021/12/07 13:09:44;;;;;;;28.27;17.12;;;;;;;3.57;63.58;98690.92;1740382;81;21528;-65
2021/12/07 13:12:19;;;;;;;24.45;15.60;;;;;;;3.47;63.56;98696.20;1726319;81;21030;-63